sensor_id;sensor_type;location;lat;lon;timestamp;P1;durP1;ratioP1;P2;durP2;ratioP2
24305;SDS011;12423;48.768;8.850;2022-10-04T00:04:04;13.52;;;6.93;;
24305;SDS011;12423;48.768;8.850;2022-10-04T00:06:22;13.88;;;6.60;;
24305;SDS011;12423;48.768;8.850;2022-10-04T00:08:27;11.93;;;6.53;;
24305;SDS011;12423;48.768;8.850;2022-10-04T00:10:32;9.02;;;6.10;;
24305;SDS011;12423;48.768;8.850;2022-10-04T00:12:35;13.40;;;6.10;;
24305;SDS011;12423;48.768;8.850;2022-10-04T00:14:41;9.75;;;6.43;;
24305;SDS011;12423;48.768;8.850;2022-10-04T00:16:43;15.13;;;6.18;;
24305;SDS011;12423;48.768;8.850;2022-10-04T00:18:44;11.00;;;6.47;;
24305;SDS011;12423;48.768;8.850;2022-10-04T00:23:23;12.20;;;6.93;;
24305;SDS011;12423;48.768;8.850;2022-10-04T00:25:32;12.52;;;6.40;;
24305;SDS011;12423;48.768;8.850;2022-10-04T00:27:34;12.23;;;6.22;;
24305;SDS011;12423;48.768;8.850;2022-10-04T00:29:38;10.93;;;6.03;;
24305;SDS011;12423;48.768;8.850;2022-10-04T00:32:28;11.25;;;5.95;;
24305;SDS011;12423;48.768;8.850;2022-10-04T00:38:26;9.88;;;5.70;;
24305;SDS011;12423;48.768;8.850;2022-10-04T00:40:44;9.07;;;5.82;;
24305;SDS011;12423;48.768;8.850;2022-10-04T00:43:03;12.75;;;6.60;;
24305;SDS011;12423;48.768;8.850;2022-10-04T00:49:43;10.82;;;5.88;;
24305;SDS011;12423;48.768;8.850;2022-10-04T00:51:53;9.85;;;6.13;;
24305;SDS011;12423;48.768;8.850;2022-10-04T00:56:07;10.95;;;6.70;;
24305;SDS011;12423;48.768;8.850;2022-10-04T00:58:17;9.30;;;5.75;;
24305;SDS011;12423;48.768;8.850;2022-10-04T01:00:23;8.75;;;5.40;;
24305;SDS011;12423;48.768;8.850;2022-10-04T01:04:40;8.88;;;5.72;;
24305;SDS011;12423;48.768;8.850;2022-10-04T01:07:02;10.30;;;5.38;;
24305;SDS011;12423;48.768;8.850;2022-10-04T01:09:06;7.15;;;5.07;;
24305;SDS011;12423;48.768;8.850;2022-10-04T01:11:19;10.63;;;5.78;;
24305;SDS011;12423;48.768;8.850;2022-10-04T01:13:27;8.55;;;5.32;;
24305;SDS011;12423;48.768;8.850;2022-10-04T01:20:32;10.93;;;5.78;;
24305;SDS011;12423;48.768;8.850;2022-10-04T01:22:49;10.15;;;5.70;;
24305;SDS011;12423;48.768;8.850;2022-10-04T01:24:50;10.68;;;5.97;;
24305;SDS011;12423;48.768;8.850;2022-10-04T01:26:52;11.45;;;5.70;;
24305;SDS011;12423;48.768;8.850;2022-10-04T01:28:54;9.35;;;6.00;;
24305;SDS011;12423;48.768;8.850;2022-10-04T01:30:58;9.90;;;5.53;;
24305;SDS011;12423;48.768;8.850;2022-10-04T01:32:59;8.88;;;5.88;;
24305;SDS011;12423;48.768;8.850;2022-10-04T01:35:01;11.57;;;5.80;;
24305;SDS011;12423;48.768;8.850;2022-10-04T01:37:03;10.20;;;5.63;;
24305;SDS011;12423;48.768;8.850;2022-10-04T01:39:04;10.82;;;5.38;;
24305;SDS011;12423;48.768;8.850;2022-10-04T01:41:06;9.10;;;5.18;;
24305;SDS011;12423;48.768;8.850;2022-10-04T01:43:10;9.55;;;5.93;;
24305;SDS011;12423;48.768;8.850;2022-10-04T01:47:18;11.63;;;5.63;;
24305;SDS011;12423;48.768;8.850;2022-10-04T01:51:31;9.32;;;5.57;;
24305;SDS011;12423;48.768;8.850;2022-10-04T01:53:39;9.23;;;5.70;;
24305;SDS011;12423;48.768;8.850;2022-10-04T01:55:49;9.32;;;4.90;;
24305;SDS011;12423;48.768;8.850;2022-10-04T01:57:59;8.68;;;6.32;;
24305;SDS011;12423;48.768;8.850;2022-10-04T02:00:11;8.85;;;5.53;;
24305;SDS011;12423;48.768;8.850;2022-10-04T02:02:18;7.97;;;5.28;;
24305;SDS011;12423;48.768;8.850;2022-10-04T02:04:29;10.75;;;5.45;;
24305;SDS011;12423;48.768;8.850;2022-10-04T02:06:35;8.50;;;5.20;;
24305;SDS011;12423;48.768;8.850;2022-10-04T02:08:43;8.38;;;5.15;;
24305;SDS011;12423;48.768;8.850;2022-10-04T02:10:49;8.20;;;5.57;;
24305;SDS011;12423;48.768;8.850;2022-10-04T02:12:54;8.85;;;5.40;;
24305;SDS011;12423;48.768;8.850;2022-10-04T02:14:57;7.85;;;5.20;;
24305;SDS011;12423;48.768;8.850;2022-10-04T02:17:02;9.73;;;6.50;;
24305;SDS011;12423;48.768;8.850;2022-10-04T02:19:10;7.70;;;5.43;;
24305;SDS011;12423;48.768;8.850;2022-10-04T02:21:12;7.95;;;5.30;;
24305;SDS011;12423;48.768;8.850;2022-10-04T02:23:16;8.70;;;5.10;;
24305;SDS011;12423;48.768;8.850;2022-10-04T02:25:19;9.10;;;4.95;;
24305;SDS011;12423;48.768;8.850;2022-10-04T02:27:25;9.43;;;4.97;;
24305;SDS011;12423;48.768;8.850;2022-10-04T02:29:30;7.95;;;4.82;;
24305;SDS011;12423;48.768;8.850;2022-10-04T02:31:32;7.43;;;5.47;;
24305;SDS011;12423;48.768;8.850;2022-10-04T02:33:52;8.25;;;5.00;;
24305;SDS011;12423;48.768;8.850;2022-10-04T02:35:57;8.80;;;5.00;;
24305;SDS011;12423;48.768;8.850;2022-10-04T02:40:13;7.57;;;5.00;;
24305;SDS011;12423;48.768;8.850;2022-10-04T02:42:20;9.45;;;5.35;;
24305;SDS011;12423;48.768;8.850;2022-10-04T02:44:29;8.13;;;5.38;;
24305;SDS011;12423;48.768;8.850;2022-10-04T02:49:05;6.45;;;4.43;;
24305;SDS011;12423;48.768;8.850;2022-10-04T02:53:22;8.30;;;5.50;;
24305;SDS011;12423;48.768;8.850;2022-10-04T02:57:31;9.13;;;4.60;;
24305;SDS011;12423;48.768;8.850;2022-10-04T02:59:34;9.15;;;5.47;;
24305;SDS011;12423;48.768;8.850;2022-10-04T03:01:40;10.07;;;5.25;;
24305;SDS011;12423;48.768;8.850;2022-10-04T03:03:49;9.95;;;5.55;;
24305;SDS011;12423;48.768;8.850;2022-10-04T03:06:13;7.70;;;4.95;;
24305;SDS011;12423;48.768;8.850;2022-10-04T03:08:18;7.10;;;5.27;;
24305;SDS011;12423;48.768;8.850;2022-10-04T03:10:20;7.65;;;5.47;;
24305;SDS011;12423;48.768;8.850;2022-10-04T03:12:21;10.70;;;4.80;;
24305;SDS011;12423;48.768;8.850;2022-10-04T03:14:24;8.73;;;5.18;;
24305;SDS011;12423;48.768;8.850;2022-10-04T03:16:32;11.00;;;5.63;;
24305;SDS011;12423;48.768;8.850;2022-10-04T03:18:35;8.27;;;5.38;;
24305;SDS011;12423;48.768;8.850;2022-10-04T03:20:37;9.00;;;5.07;;
24305;SDS011;12423;48.768;8.850;2022-10-04T03:22:40;6.88;;;5.00;;
24305;SDS011;12423;48.768;8.850;2022-10-04T03:24:45;7.85;;;4.88;;
24305;SDS011;12423;48.768;8.850;2022-10-04T03:26:54;11.80;;;4.97;;
24305;SDS011;12423;48.768;8.850;2022-10-04T03:28:57;10.70;;;5.53;;
24305;SDS011;12423;48.768;8.850;2022-10-04T03:30:58;7.55;;;5.45;;
24305;SDS011;12423;48.768;8.850;2022-10-04T03:33:00;9.30;;;5.25;;
24305;SDS011;12423;48.768;8.850;2022-10-04T03:35:03;6.72;;;4.70;;
24305;SDS011;12423;48.768;8.850;2022-10-04T03:37:09;6.15;;;4.63;;
24305;SDS011;12423;48.768;8.850;2022-10-04T03:39:22;10.63;;;5.57;;
24305;SDS011;12423;48.768;8.850;2022-10-04T03:41:33;9.82;;;5.25;;
24305;SDS011;12423;48.768;8.850;2022-10-04T03:43:43;6.97;;;4.60;;
24305;SDS011;12423;48.768;8.850;2022-10-04T03:45:46;6.47;;;4.72;;
24305;SDS011;12423;48.768;8.850;2022-10-04T03:47:48;7.03;;;5.07;;
24305;SDS011;12423;48.768;8.850;2022-10-04T03:49:51;9.80;;;5.00;;
24305;SDS011;12423;48.768;8.850;2022-10-04T03:51:54;9.88;;;5.40;;
24305;SDS011;12423;48.768;8.850;2022-10-04T03:53:58;8.60;;;4.75;;
24305;SDS011;12423;48.768;8.850;2022-10-04T03:56:02;9.20;;;4.97;;
24305;SDS011;12423;48.768;8.850;2022-10-04T03:58:13;8.40;;;5.25;;
24305;SDS011;12423;48.768;8.850;2022-10-04T04:00:17;6.57;;;4.82;;
24305;SDS011;12423;48.768;8.850;2022-10-04T04:02:31;6.72;;;4.65;;
24305;SDS011;12423;48.768;8.850;2022-10-04T04:07:00;7.05;;;5.00;;
24305;SDS011;12423;48.768;8.850;2022-10-04T04:09:05;10.85;;;4.75;;
24305;SDS011;12423;48.768;8.850;2022-10-04T04:11:14;7.10;;;4.32;;
24305;SDS011;12423;48.768;8.850;2022-10-04T04:14:06;6.88;;;4.75;;
24305;SDS011;12423;48.768;8.850;2022-10-04T04:15:59;6.75;;;4.38;;
24305;SDS011;12423;48.768;8.850;2022-10-04T04:18:05;7.43;;;4.93;;
24305;SDS011;12423;48.768;8.850;2022-10-04T04:20:24;7.50;;;5.05;;
24305;SDS011;12423;48.768;8.850;2022-10-04T04:22:36;9.75;;;4.32;;
24305;SDS011;12423;48.768;8.850;2022-10-04T04:24:38;9.55;;;4.93;;
24305;SDS011;12423;48.768;8.850;2022-10-04T04:26:42;8.65;;;4.70;;
24305;SDS011;12423;48.768;8.850;2022-10-04T04:28:48;10.07;;;4.90;;
24305;SDS011;12423;48.768;8.850;2022-10-04T04:30:56;7.78;;;5.13;;
24305;SDS011;12423;48.768;8.850;2022-10-04T04:35:06;7.38;;;4.68;;
24305;SDS011;12423;48.768;8.850;2022-10-04T04:37:19;9.02;;;5.10;;
24305;SDS011;12423;48.768;8.850;2022-10-04T04:39:21;8.27;;;4.75;;
24305;SDS011;12423;48.768;8.850;2022-10-04T04:41:44;9.85;;;5.43;;
24305;SDS011;12423;48.768;8.850;2022-10-04T04:43:45;7.90;;;4.80;;
24305;SDS011;12423;48.768;8.850;2022-10-04T04:45:47;9.63;;;5.03;;
24305;SDS011;12423;48.768;8.850;2022-10-04T04:47:49;9.85;;;5.28;;
24305;SDS011;12423;48.768;8.850;2022-10-04T04:49:54;7.20;;;5.15;;
24305;SDS011;12423;48.768;8.850;2022-10-04T04:51:58;8.95;;;5.30;;
24305;SDS011;12423;48.768;8.850;2022-10-04T04:54:00;6.32;;;4.60;;
24305;SDS011;12423;48.768;8.850;2022-10-04T04:56:03;8.13;;;5.05;;
24305;SDS011;12423;48.768;8.850;2022-10-04T04:58:06;7.10;;;5.05;;
24305;SDS011;12423;48.768;8.850;2022-10-04T05:00:13;8.05;;;4.85;;
24305;SDS011;12423;48.768;8.850;2022-10-04T05:02:30;7.95;;;4.75;;
24305;SDS011;12423;48.768;8.850;2022-10-04T05:04:31;8.88;;;5.40;;
24305;SDS011;12423;48.768;8.850;2022-10-04T05:06:33;11.60;;;4.60;;
24305;SDS011;12423;48.768;8.850;2022-10-04T05:08:35;7.07;;;4.97;;
24305;SDS011;12423;48.768;8.850;2022-10-04T05:10:39;6.55;;;4.57;;
24305;SDS011;12423;48.768;8.850;2022-10-04T05:12:44;7.35;;;4.75;;
24305;SDS011;12423;48.768;8.850;2022-10-04T05:14:48;7.30;;;4.72;;
24305;SDS011;12423;48.768;8.850;2022-10-04T05:16:52;10.10;;;5.38;;
24305;SDS011;12423;48.768;8.850;2022-10-04T05:18:55;9.57;;;4.93;;
24305;SDS011;12423;48.768;8.850;2022-10-04T05:21:06;7.07;;;5.28;;
24305;SDS011;12423;48.768;8.850;2022-10-04T05:23:13;7.63;;;4.60;;
24305;SDS011;12423;48.768;8.850;2022-10-04T05:25:25;7.88;;;5.38;;
24305;SDS011;12423;48.768;8.850;2022-10-04T05:27:39;7.60;;;5.45;;
24305;SDS011;12423;48.768;8.850;2022-10-04T05:34:22;8.80;;;5.43;;
24305;SDS011;12423;48.768;8.850;2022-10-04T05:38:56;11.95;;;5.95;;
24305;SDS011;12423;48.768;8.850;2022-10-04T05:41:08;9.93;;;5.60;;
24305;SDS011;12423;48.768;8.850;2022-10-04T05:45:31;10.95;;;6.82;;
24305;SDS011;12423;48.768;8.850;2022-10-04T05:47:32;12.68;;;6.80;;
24305;SDS011;12423;48.768;8.850;2022-10-04T05:49:35;10.57;;;6.18;;
24305;SDS011;12423;48.768;8.850;2022-10-04T05:51:54;11.32;;;5.68;;
24305;SDS011;12423;48.768;8.850;2022-10-04T05:54:00;9.80;;;5.78;;
24305;SDS011;12423;48.768;8.850;2022-10-04T05:59:03;8.88;;;6.13;;
24305;SDS011;12423;48.768;8.850;2022-10-04T06:03:22;10.48;;;6.40;;
24305;SDS011;12423;48.768;8.850;2022-10-04T06:17:27;10.18;;;6.90;;
24305;SDS011;12423;48.768;8.850;2022-10-04T06:24:15;9.90;;;6.13;;
24305;SDS011;12423;48.768;8.850;2022-10-04T06:26:22;10.85;;;6.18;;
24305;SDS011;12423;48.768;8.850;2022-10-04T06:28:28;10.48;;;6.80;;
24305;SDS011;12423;48.768;8.850;2022-10-04T06:30:37;11.98;;;6.68;;
24305;SDS011;12423;48.768;8.850;2022-10-04T06:40:15;14.63;;;8.60;;
24305;SDS011;12423;48.768;8.850;2022-10-04T06:49:53;11.40;;;7.30;;
24305;SDS011;12423;48.768;8.850;2022-10-04T06:58:59;16.77;;;9.55;;
24305;SDS011;12423;48.768;8.850;2022-10-04T07:03:15;9.88;;;7.28;;
24305;SDS011;12423;48.768;8.850;2022-10-04T07:05:45;10.13;;;7.18;;
24305;SDS011;12423;48.768;8.850;2022-10-04T07:07:54;11.82;;;5.97;;
24305;SDS011;12423;48.768;8.850;2022-10-04T07:12:33;10.43;;;6.60;;
24305;SDS011;12423;48.768;8.850;2022-10-04T07:14:44;8.05;;;5.50;;
24305;SDS011;12423;48.768;8.850;2022-10-04T07:16:50;8.18;;;5.40;;
24305;SDS011;12423;48.768;8.850;2022-10-04T07:21:17;11.23;;;5.55;;
24305;SDS011;12423;48.768;8.850;2022-10-04T07:23:23;9.68;;;5.38;;
24305;SDS011;12423;48.768;8.850;2022-10-04T07:25:35;8.13;;;5.93;;
24305;SDS011;12423;48.768;8.850;2022-10-04T07:27:51;8.15;;;6.75;;
24305;SDS011;12423;48.768;8.850;2022-10-04T07:30:15;9.85;;;6.88;;
24305;SDS011;12423;48.768;8.850;2022-10-04T07:34:25;10.32;;;6.40;;
24305;SDS011;12423;48.768;8.850;2022-10-04T07:36:36;12.15;;;6.20;;
24305;SDS011;12423;48.768;8.850;2022-10-04T07:38:47;9.05;;;6.50;;
24305;SDS011;12423;48.768;8.850;2022-10-04T07:43:10;9.80;;;6.05;;
24305;SDS011;12423;48.768;8.850;2022-10-04T07:47:26;10.98;;;6.93;;
24305;SDS011;12423;48.768;8.850;2022-10-04T07:49:34;15.65;;;7.35;;
24305;SDS011;12423;48.768;8.850;2022-10-04T07:51:58;11.60;;;8.05;;
24305;SDS011;12423;48.768;8.850;2022-10-04T07:54:11;11.60;;;7.43;;
24305;SDS011;12423;48.768;8.850;2022-10-04T07:56:46;16.52;;;7.82;;
24305;SDS011;12423;48.768;8.850;2022-10-04T08:01:18;11.68;;;6.25;;
24305;SDS011;12423;48.768;8.850;2022-10-04T08:03:33;10.63;;;6.90;;
24305;SDS011;12423;48.768;8.850;2022-10-04T08:06:34;10.48;;;7.82;;
24305;SDS011;12423;48.768;8.850;2022-10-04T08:08:46;11.77;;;6.93;;
24305;SDS011;12423;48.768;8.850;2022-10-04T08:15:34;9.48;;;6.43;;
24305;SDS011;12423;48.768;8.850;2022-10-04T08:17:50;9.98;;;6.78;;
24305;SDS011;12423;48.768;8.850;2022-10-04T08:24:58;9.32;;;6.25;;
24305;SDS011;12423;48.768;8.850;2022-10-04T08:27:16;14.48;;;7.72;;
24305;SDS011;12423;48.768;8.850;2022-10-04T08:34:14;9.95;;;6.85;;
24305;SDS011;12423;48.768;8.850;2022-10-04T08:36:41;12.38;;;6.93;;
24305;SDS011;12423;48.768;8.850;2022-10-04T08:38:55;11.45;;;6.50;;
24305;SDS011;12423;48.768;8.850;2022-10-04T08:50:47;10.85;;;6.22;;
24305;SDS011;12423;48.768;8.850;2022-10-04T08:56:04;10.63;;;6.78;;
24305;SDS011;12423;48.768;8.850;2022-10-04T09:03:10;10.60;;;6.25;;
24305;SDS011;12423;48.768;8.850;2022-10-04T09:15:51;10.15;;;5.00;;
24305;SDS011;12423;48.768;8.850;2022-10-04T09:18:12;11.40;;;5.57;;
24305;SDS011;12423;48.768;8.850;2022-10-04T09:20:54;8.15;;;4.95;;
24305;SDS011;12423;48.768;8.850;2022-10-04T09:23:05;9.30;;;5.22;;
24305;SDS011;12423;48.768;8.850;2022-10-04T09:25:31;8.23;;;4.43;;
24305;SDS011;12423;48.768;8.850;2022-10-04T09:36:51;6.68;;;3.45;;
24305;SDS011;12423;48.768;8.850;2022-10-04T09:41:20;4.60;;;2.80;;
24305;SDS011;12423;48.768;8.850;2022-10-04T09:46:10;4.70;;;3.22;;
24305;SDS011;12423;48.768;8.850;2022-10-04T09:48:37;6.13;;;3.00;;
24305;SDS011;12423;48.768;8.850;2022-10-04T09:51:00;6.88;;;3.55;;
24305;SDS011;12423;48.768;8.850;2022-10-04T10:00:17;8.48;;;4.13;;
24305;SDS011;12423;48.768;8.850;2022-10-04T10:12:04;6.60;;;3.55;;
24305;SDS011;12423;48.768;8.850;2022-10-04T10:14:54;5.93;;;3.17;;
24305;SDS011;12423;48.768;8.850;2022-10-04T10:22:40;6.28;;;3.53;;
24305;SDS011;12423;48.768;8.850;2022-10-04T10:24:55;8.15;;;3.90;;
24305;SDS011;12423;48.768;8.850;2022-10-04T10:27:01;5.70;;;2.92;;
24305;SDS011;12423;48.768;8.850;2022-10-04T10:38:35;8.10;;;2.72;;
24305;SDS011;12423;48.768;8.850;2022-10-04T10:50:02;5.63;;;2.40;;
24305;SDS011;12423;48.768;8.850;2022-10-04T10:52:21;5.00;;;2.42;;
24305;SDS011;12423;48.768;8.850;2022-10-04T10:56:48;5.90;;;2.10;;
24305;SDS011;12423;48.768;8.850;2022-10-04T10:59:20;5.13;;;1.95;;
24305;SDS011;12423;48.768;8.850;2022-10-04T11:04:55;4.90;;;1.95;;
24305;SDS011;12423;48.768;8.850;2022-10-04T11:17:00;5.03;;;2.22;;
24305;SDS011;12423;48.768;8.850;2022-10-04T11:28:36;3.58;;;1.40;;
24305;SDS011;12423;48.768;8.850;2022-10-04T11:50:16;3.63;;;1.95;;
24305;SDS011;12423;48.768;8.850;2022-10-04T11:52:34;8.02;;;2.47;;
24305;SDS011;12423;48.768;8.850;2022-10-04T11:57:33;4.45;;;1.80;;
24305;SDS011;12423;48.768;8.850;2022-10-04T12:03:06;4.78;;;1.75;;
24305;SDS011;12423;48.768;8.850;2022-10-04T12:14:13;3.97;;;1.70;;
24305;SDS011;12423;48.768;8.850;2022-10-04T12:29:13;4.97;;;1.83;;
24305;SDS011;12423;48.768;8.850;2022-10-04T12:33:34;5.07;;;2.63;;
24305;SDS011;12423;48.768;8.850;2022-10-04T12:40:35;3.22;;;1.42;;
24305;SDS011;12423;48.768;8.850;2022-10-04T12:44:59;6.28;;;1.92;;
24305;SDS011;12423;48.768;8.850;2022-10-04T12:51:50;4.30;;;1.38;;
24305;SDS011;12423;48.768;8.850;2022-10-04T12:54:02;5.40;;;1.48;;
24305;SDS011;12423;48.768;8.850;2022-10-04T13:00:50;2.67;;;1.27;;
24305;SDS011;12423;48.768;8.850;2022-10-04T13:09:54;2.92;;;1.10;;
24305;SDS011;12423;48.768;8.850;2022-10-04T13:24:20;2.22;;;0.88;;
24305;SDS011;12423;48.768;8.850;2022-10-04T13:31:08;6.30;;;2.28;;
24305;SDS011;12423;48.768;8.850;2022-10-04T13:35:41;5.18;;;1.10;;
24305;SDS011;12423;48.768;8.850;2022-10-04T13:38:01;2.95;;;1.17;;
24305;SDS011;12423;48.768;8.850;2022-10-04T13:49:55;2.00;;;1.10;;
24305;SDS011;12423;48.768;8.850;2022-10-04T13:52:17;2.13;;;1.23;;
24305;SDS011;12423;48.768;8.850;2022-10-04T13:54:44;2.17;;;1.30;;
24305;SDS011;12423;48.768;8.850;2022-10-04T13:57:14;3.75;;;1.25;;
24305;SDS011;12423;48.768;8.850;2022-10-04T14:02:06;5.35;;;1.13;;
24305;SDS011;12423;48.768;8.850;2022-10-04T14:11:37;1.90;;;1.20;;
24305;SDS011;12423;48.768;8.850;2022-10-04T14:19:05;4.22;;;0.90;;
24305;SDS011;12423;48.768;8.850;2022-10-04T14:48:46;2.08;;;0.98;;
24305;SDS011;12423;48.768;8.850;2022-10-04T15:00:35;4.22;;;0.90;;
24305;SDS011;12423;48.768;8.850;2022-10-04T15:05:24;2.03;;;1.08;;
24305;SDS011;12423;48.768;8.850;2022-10-04T15:07:35;1.95;;;1.00;;
24305;SDS011;12423;48.768;8.850;2022-10-04T15:14:33;2.55;;;0.90;;
24305;SDS011;12423;48.768;8.850;2022-10-04T15:16:45;1.95;;;0.88;;
24305;SDS011;12423;48.768;8.850;2022-10-04T15:18:55;2.75;;;1.15;;
24305;SDS011;12423;48.768;8.850;2022-10-04T15:23:42;2.78;;;1.00;;
24305;SDS011;12423;48.768;8.850;2022-10-04T15:25:49;3.88;;;1.15;;
24305;SDS011;12423;48.768;8.850;2022-10-04T15:27:56;8.18;;;1.60;;
24305;SDS011;12423;48.768;8.850;2022-10-04T15:32:26;3.85;;;1.27;;
24305;SDS011;12423;48.768;8.850;2022-10-04T15:34:43;1.90;;;1.13;;
24305;SDS011;12423;48.768;8.850;2022-10-04T15:37:02;2.13;;;1.08;;
24305;SDS011;12423;48.768;8.850;2022-10-04T15:41:24;4.30;;;1.00;;
24305;SDS011;12423;48.768;8.850;2022-10-04T15:46:18;6.35;;;1.15;;
24305;SDS011;12423;48.768;8.850;2022-10-04T15:50:56;3.88;;;1.10;;
24305;SDS011;12423;48.768;8.850;2022-10-04T15:53:10;2.83;;;1.30;;
24305;SDS011;12423;48.768;8.850;2022-10-04T15:55:47;4.82;;;1.58;;
24305;SDS011;12423;48.768;8.850;2022-10-04T15:58:13;2.90;;;1.30;;
24305;SDS011;12423;48.768;8.850;2022-10-04T16:09:44;2.80;;;1.27;;
24305;SDS011;12423;48.768;8.850;2022-10-04T16:12:12;3.53;;;1.35;;
24305;SDS011;12423;48.768;8.850;2022-10-04T16:18:44;2.28;;;1.30;;
24305;SDS011;12423;48.768;8.850;2022-10-04T16:21:14;4.28;;;1.40;;
24305;SDS011;12423;48.768;8.850;2022-10-04T16:25:34;5.18;;;1.50;;
24305;SDS011;12423;48.768;8.850;2022-10-04T16:35:06;3.38;;;1.60;;
24305;SDS011;12423;48.768;8.850;2022-10-04T16:37:41;4.13;;;1.48;;
24305;SDS011;12423;48.768;8.850;2022-10-04T16:40:00;2.72;;;1.42;;
24305;SDS011;12423;48.768;8.850;2022-10-04T16:42:47;4.25;;;1.80;;
24305;SDS011;12423;48.768;8.850;2022-10-04T16:47:21;4.38;;;1.60;;
24305;SDS011;12423;48.768;8.850;2022-10-04T16:49:31;7.93;;;4.43;;
24305;SDS011;12423;48.768;8.850;2022-10-04T16:51:56;6.20;;;1.70;;
24305;SDS011;12423;48.768;8.850;2022-10-04T16:54:08;3.20;;;2.40;;
24305;SDS011;12423;48.768;8.850;2022-10-04T16:57:33;5.38;;;2.50;;
24305;SDS011;12423;48.768;8.850;2022-10-04T17:06:52;7.38;;;2.50;;
24305;SDS011;12423;48.768;8.850;2022-10-04T17:09:07;8.00;;;2.33;;
24305;SDS011;12423;48.768;8.850;2022-10-04T17:11:38;5.25;;;3.25;;
24305;SDS011;12423;48.768;8.850;2022-10-04T17:30:01;16.40;;;9.93;;
24305;SDS011;12423;48.768;8.850;2022-10-04T17:32:19;27.88;;;16.52;;
24305;SDS011;12423;48.768;8.850;2022-10-04T17:39:10;8.60;;;6.18;;
24305;SDS011;12423;48.768;8.850;2022-10-04T17:46:17;7.75;;;5.35;;
24305;SDS011;12423;48.768;8.850;2022-10-04T17:48:28;7.68;;;5.55;;
24305;SDS011;12423;48.768;8.850;2022-10-04T17:50:59;8.75;;;5.43;;
24305;SDS011;12423;48.768;8.850;2022-10-04T17:53:23;11.27;;;6.88;;
24305;SDS011;12423;48.768;8.850;2022-10-04T17:55:50;15.13;;;9.63;;
24305;SDS011;12423;48.768;8.850;2022-10-04T17:57:59;12.13;;;8.30;;
24305;SDS011;12423;48.768;8.850;2022-10-04T18:00:08;14.70;;;8.32;;
24305;SDS011;12423;48.768;8.850;2022-10-04T18:04:26;12.30;;;7.30;;
24305;SDS011;12423;48.768;8.850;2022-10-04T18:07:07;9.45;;;6.80;;
24305;SDS011;12423;48.768;8.850;2022-10-04T18:13:48;9.77;;;5.75;;
24305;SDS011;12423;48.768;8.850;2022-10-04T18:18:29;9.00;;;4.75;;
24305;SDS011;12423;48.768;8.850;2022-10-04T18:25:28;8.30;;;4.20;;
24305;SDS011;12423;48.768;8.850;2022-10-04T18:27:31;9.88;;;4.95;;
24305;SDS011;12423;48.768;8.850;2022-10-04T18:29:34;8.68;;;4.20;;
24305;SDS011;12423;48.768;8.850;2022-10-04T18:31:42;9.15;;;4.50;;
24305;SDS011;12423;48.768;8.850;2022-10-04T18:35:50;10.40;;;5.07;;
24305;SDS011;12423;48.768;8.850;2022-10-04T18:37:54;7.90;;;4.43;;
24305;SDS011;12423;48.768;8.850;2022-10-04T18:40:18;8.63;;;4.40;;
24305;SDS011;12423;48.768;8.850;2022-10-04T18:44:27;8.63;;;4.78;;
24305;SDS011;12423;48.768;8.850;2022-10-04T18:46:41;5.68;;;3.85;;
24305;SDS011;12423;48.768;8.850;2022-10-04T18:48:53;6.72;;;4.35;;
24305;SDS011;12423;48.768;8.850;2022-10-04T18:50:56;9.20;;;3.60;;
24305;SDS011;12423;48.768;8.850;2022-10-04T18:53:41;7.00;;;4.30;;
24305;SDS011;12423;48.768;8.850;2022-10-04T19:00:49;10.18;;;5.18;;
24305;SDS011;12423;48.768;8.850;2022-10-04T19:03:21;11.63;;;7.85;;
24305;SDS011;12423;48.768;8.850;2022-10-04T19:05:46;11.23;;;6.88;;
24305;SDS011;12423;48.768;8.850;2022-10-04T19:08:13;13.85;;;6.88;;
24305;SDS011;12423;48.768;8.850;2022-10-04T19:10:31;9.45;;;5.65;;
24305;SDS011;12423;48.768;8.850;2022-10-04T19:12:38;10.30;;;6.78;;
24305;SDS011;12423;48.768;8.850;2022-10-04T19:17:00;9.40;;;6.63;;
24305;SDS011;12423;48.768;8.850;2022-10-04T19:21:29;10.10;;;6.07;;
24305;SDS011;12423;48.768;8.850;2022-10-04T19:24:29;7.70;;;5.43;;
24305;SDS011;12423;48.768;8.850;2022-10-04T19:26:23;10.18;;;6.25;;
24305;SDS011;12423;48.768;8.850;2022-10-04T19:28:32;9.60;;;6.95;;
24305;SDS011;12423;48.768;8.850;2022-10-04T19:35:21;14.52;;;8.18;;
24305;SDS011;12423;48.768;8.850;2022-10-04T19:37:25;9.90;;;6.97;;
24305;SDS011;12423;48.768;8.850;2022-10-04T19:39:41;10.52;;;7.00;;
24305;SDS011;12423;48.768;8.850;2022-10-04T19:41:59;13.77;;;7.30;;
24305;SDS011;12423;48.768;8.850;2022-10-04T19:44:18;12.52;;;7.22;;
24305;SDS011;12423;48.768;8.850;2022-10-04T19:46:42;10.20;;;7.85;;
24305;SDS011;12423;48.768;8.850;2022-10-04T19:48:46;13.10;;;8.55;;
24305;SDS011;12423;48.768;8.850;2022-10-04T19:50:50;11.77;;;7.82;;
24305;SDS011;12423;48.768;8.850;2022-10-04T19:53:06;13.77;;;7.70;;
24305;SDS011;12423;48.768;8.850;2022-10-04T19:55:25;11.13;;;7.20;;
24305;SDS011;12423;48.768;8.850;2022-10-04T19:57:35;9.03;;;5.60;;
24305;SDS011;12423;48.768;8.850;2022-10-04T19:59:38;8.60;;;5.40;;
24305;SDS011;12423;48.768;8.850;2022-10-04T20:01:41;7.53;;;5.85;;
24305;SDS011;12423;48.768;8.850;2022-10-04T20:03:42;8.07;;;5.00;;
24305;SDS011;12423;48.768;8.850;2022-10-04T20:05:44;8.80;;;5.63;;
24305;SDS011;12423;48.768;8.850;2022-10-04T20:07:51;9.98;;;6.65;;
24305;SDS011;12423;48.768;8.850;2022-10-04T20:18:55;9.75;;;6.28;;
24305;SDS011;12423;48.768;8.850;2022-10-04T20:23:03;9.48;;;6.18;;
24305;SDS011;12423;48.768;8.850;2022-10-04T20:25:05;10.50;;;7.13;;
24305;SDS011;12423;48.768;8.850;2022-10-04T20:31:53;13.68;;;9.70;;
24305;SDS011;12423;48.768;8.850;2022-10-04T20:33:54;18.23;;;8.80;;
24305;SDS011;12423;48.768;8.850;2022-10-04T20:38:19;7.95;;;6.20;;
24305;SDS011;12423;48.768;8.850;2022-10-04T20:46:57;11.93;;;5.78;;
24305;SDS011;12423;48.768;8.850;2022-10-04T20:48:59;10.38;;;5.90;;
24305;SDS011;12423;48.768;8.850;2022-10-04T20:51:05;11.38;;;6.22;;
24305;SDS011;12423;48.768;8.850;2022-10-04T20:53:22;12.90;;;6.15;;
24305;SDS011;12423;48.768;8.850;2022-10-04T20:55:28;9.90;;;6.05;;
24305;SDS011;12423;48.768;8.850;2022-10-04T20:57:30;8.85;;;5.80;;
24305;SDS011;12423;48.768;8.850;2022-10-04T20:59:32;12.80;;;5.65;;
24305;SDS011;12423;48.768;8.850;2022-10-04T21:01:34;11.35;;;5.95;;
24305;SDS011;12423;48.768;8.850;2022-10-04T21:03:35;10.13;;;6.63;;
24305;SDS011;12423;48.768;8.850;2022-10-04T21:05:36;11.70;;;6.93;;
24305;SDS011;12423;48.768;8.850;2022-10-04T21:07:38;12.20;;;6.15;;
24305;SDS011;12423;48.768;8.850;2022-10-04T21:09:39;9.50;;;5.10;;
24305;SDS011;12423;48.768;8.850;2022-10-04T21:11:45;10.82;;;5.88;;
24305;SDS011;12423;48.768;8.850;2022-10-04T21:15:54;9.68;;;5.75;;
24305;SDS011;12423;48.768;8.850;2022-10-04T21:18:00;10.45;;;5.63;;
24305;SDS011;12423;48.768;8.850;2022-10-04T21:20:13;9.80;;;5.65;;
24305;SDS011;12423;48.768;8.850;2022-10-04T21:22:35;8.82;;;5.93;;
24305;SDS011;12423;48.768;8.850;2022-10-04T21:24:38;11.60;;;6.50;;
24305;SDS011;12423;48.768;8.850;2022-10-04T21:26:53;12.63;;;7.50;;
24305;SDS011;12423;48.768;8.850;2022-10-04T21:28:58;8.80;;;5.80;;
24305;SDS011;12423;48.768;8.850;2022-10-04T21:31:01;11.32;;;6.95;;
24305;SDS011;12423;48.768;8.850;2022-10-04T21:33:03;11.20;;;6.82;;
24305;SDS011;12423;48.768;8.850;2022-10-04T21:35:04;11.68;;;6.57;;
24305;SDS011;12423;48.768;8.850;2022-10-04T21:37:06;12.13;;;7.28;;
24305;SDS011;12423;48.768;8.850;2022-10-04T21:39:07;11.30;;;7.38;;
24305;SDS011;12423;48.768;8.850;2022-10-04T21:41:08;12.13;;;6.63;;
24305;SDS011;12423;48.768;8.850;2022-10-04T21:43:10;10.07;;;6.43;;
24305;SDS011;12423;48.768;8.850;2022-10-04T21:45:11;9.32;;;6.63;;
24305;SDS011;12423;48.768;8.850;2022-10-04T21:47:12;9.77;;;6.65;;